sensor_id;sensor_type;location;lat;lon;timestamp;P1;durP1;ratioP1;P2;durP2;ratioP2
7883;SDS011;3987;51.458;7.238;2023-09-30T00:13:48;19.47;;;6.03;;
7883;SDS011;3987;51.458;7.238;2023-09-30T00:28:49;16.27;;;7.83;;
7883;SDS011;3987;51.458;7.238;2023-09-30T00:43:49;11.60;;;6.33;;
7883;SDS011;3987;51.458;7.238;2023-09-30T00:58:50;18.43;;;7.63;;
7883;SDS011;3987;51.458;7.238;2023-09-30T01:13:51;18.50;;;6.60;;
7883;SDS011;3987;51.458;7.238;2023-09-30T01:28:54;17.23;;;6.43;;
7883;SDS011;3987;51.458;7.238;2023-09-30T01:43:55;19.00;;;6.87;;
7883;SDS011;3987;51.458;7.238;2023-09-30T01:58:56;20.97;;;6.53;;
7883;SDS011;3987;51.458;7.238;2023-09-30T02:13:56;12.43;;;5.70;;
7883;SDS011;3987;51.458;7.238;2023-09-30T02:28:58;11.97;;;5.77;;
7883;SDS011;3987;51.458;7.238;2023-09-30T02:43:58;17.00;;;5.57;;
7883;SDS011;3987;51.458;7.238;2023-09-30T02:58:59;16.73;;;6.80;;
7883;SDS011;3987;51.458;7.238;2023-09-30T03:14:00;19.07;;;9.17;;
7883;SDS011;3987;51.458;7.238;2023-09-30T03:29:00;21.93;;;8.80;;
7883;SDS011;3987;51.458;7.238;2023-09-30T03:44:01;14.10;;;6.47;;
7883;SDS011;3987;51.458;7.238;2023-09-30T03:59:02;16.10;;;5.97;;
7883;SDS011;3987;51.458;7.238;2023-09-30T04:14:06;19.47;;;5.43;;
7883;SDS011;3987;51.458;7.238;2023-09-30T04:29:07;12.87;;;5.00;;
7883;SDS011;3987;51.458;7.238;2023-09-30T04:44:10;19.50;;;5.80;;
7883;SDS011;3987;51.458;7.238;2023-09-30T04:59:11;13.53;;;5.63;;
7883;SDS011;3987;51.458;7.238;2023-09-30T05:14:12;18.33;;;7.17;;
7883;SDS011;3987;51.458;7.238;2023-09-30T05:29:13;26.03;;;9.60;;
7883;SDS011;3987;51.458;7.238;2023-09-30T05:44:13;27.43;;;12.00;;
7883;SDS011;3987;51.458;7.238;2023-09-30T05:59:14;20.45;;;10.50;;
7883;SDS011;3987;51.458;7.238;2023-09-30T06:14:15;27.30;;;11.20;;
7883;SDS011;3987;51.458;7.238;2023-09-30T06:29:15;22.03;;;12.20;;
7883;SDS011;3987;51.458;7.238;2023-09-30T06:44:16;25.87;;;12.60;;
7883;SDS011;3987;51.458;7.238;2023-09-30T06:59:16;28.63;;;12.43;;
7883;SDS011;3987;51.458;7.238;2023-09-30T07:14:17;30.30;;;12.87;;
7883;SDS011;3987;51.458;7.238;2023-09-30T07:29:17;20.07;;;10.90;;
7883;SDS011;3987;51.458;7.238;2023-09-30T07:44:18;19.70;;;10.57;;
7883;SDS011;3987;51.458;7.238;2023-09-30T07:59:18;19.43;;;9.33;;
7883;SDS011;3987;51.458;7.238;2023-09-30T08:14:19;19.07;;;7.93;;
7883;SDS011;3987;51.458;7.238;2023-09-30T08:29:19;12.67;;;6.60;;
7883;SDS011;3987;51.458;7.238;2023-09-30T08:44:20;7.20;;;5.53;;
7883;SDS011;3987;51.458;7.238;2023-09-30T08:59:20;11.23;;;5.00;;
7883;SDS011;3987;51.458;7.238;2023-09-30T09:14:39;5.53;;;4.40;;
7883;SDS011;3987;51.458;7.238;2023-09-30T09:29:40;7.60;;;4.80;;
7883;SDS011;3987;51.458;7.238;2023-09-30T09:44:43;6.43;;;4.77;;
7883;SDS011;3987;51.458;7.238;2023-09-30T09:59:45;4.67;;;4.00;;
7883;SDS011;3987;51.458;7.238;2023-09-30T10:14:49;7.07;;;4.40;;
7883;SDS011;3987;51.458;7.238;2023-09-30T11:00:36;2.37;;;2.27;;
7883;SDS011;3987;51.458;7.238;2023-09-30T11:15:38;2.50;;;2.30;;
7883;SDS011;3987;51.458;7.238;2023-09-30T11:30:52;5.00;;;3.13;;
7883;SDS011;3987;51.458;7.238;2023-09-30T11:46:06;2.70;;;1.53;;
7883;SDS011;3987;51.458;7.238;2023-09-30T12:01:08;3.73;;;2.60;;
7883;SDS011;3987;51.458;7.238;2023-09-30T12:16:11;2.30;;;2.10;;
7883;SDS011;3987;51.458;7.238;2023-09-30T12:31:13;3.40;;;2.30;;
7883;SDS011;3987;51.458;7.238;2023-09-30T12:46:13;2.40;;;2.20;;
7883;SDS011;3987;51.458;7.238;2023-09-30T13:01:14;3.63;;;3.10;;
7883;SDS011;3987;51.458;7.238;2023-09-30T13:16:14;4.07;;;3.07;;
7883;SDS011;3987;51.458;7.238;2023-09-30T13:31:17;3.67;;;3.30;;
7883;SDS011;3987;51.458;7.238;2023-09-30T13:46:17;5.63;;;3.00;;
7883;SDS011;3987;51.458;7.238;2023-09-30T14:01:18;3.33;;;3.03;;
7883;SDS011;3987;51.458;7.238;2023-09-30T14:16:20;3.60;;;3.30;;
7883;SDS011;3987;51.458;7.238;2023-09-30T14:31:21;3.27;;;3.17;;
7883;SDS011;3987;51.458;7.238;2023-09-30T14:46:21;3.73;;;2.80;;
7883;SDS011;3987;51.458;7.238;2023-09-30T15:01:22;2.83;;;2.60;;
7883;SDS011;3987;51.458;7.238;2023-09-30T15:16:23;2.90;;;2.63;;
7883;SDS011;3987;51.458;7.238;2023-09-30T15:31:28;3.17;;;2.83;;
7883;SDS011;3987;51.458;7.238;2023-09-30T15:46:31;3.20;;;2.90;;
7883;SDS011;3987;51.458;7.238;2023-09-30T16:01:31;2.90;;;2.70;;
7883;SDS011;3987;51.458;7.238;2023-09-30T16:16:33;3.27;;;3.00;;
7883;SDS011;3987;51.458;7.238;2023-09-30T16:31:33;2.83;;;2.70;;
7883;SDS011;3987;51.458;7.238;2023-09-30T16:46:37;3.47;;;3.13;;
7883;SDS011;3987;51.458;7.238;2023-09-30T17:01:41;3.67;;;3.40;;
7883;SDS011;3987;51.458;7.238;2023-09-30T17:16:42;4.90;;;4.50;;
7883;SDS011;3987;51.458;7.238;2023-09-30T17:31:42;4.67;;;4.23;;
7883;SDS011;3987;51.458;7.238;2023-09-30T17:46:43;6.30;;;5.67;;
7883;SDS011;3987;51.458;7.238;2023-09-30T18:01:44;7.70;;;5.57;;
7883;SDS011;3987;51.458;7.238;2023-09-30T18:16:44;7.13;;;6.50;;
7883;SDS011;3987;51.458;7.238;2023-09-30T18:31:45;8.17;;;7.03;;
7883;SDS011;3987;51.458;7.238;2023-09-30T18:46:45;9.27;;;8.70;;
7883;SDS011;3987;51.458;7.238;2023-09-30T19:01:46;8.30;;;7.67;;
7883;SDS011;3987;51.458;7.238;2023-09-30T19:16:47;8.97;;;8.20;;
7883;SDS011;3987;51.458;7.238;2023-09-30T19:31:48;9.93;;;8.23;;
7883;SDS011;3987;51.458;7.238;2023-09-30T19:46:50;9.33;;;8.37;;
7883;SDS011;3987;51.458;7.238;2023-09-30T20:01:50;8.33;;;7.53;;
7883;SDS011;3987;51.458;7.238;2023-09-30T20:16:52;8.20;;;7.60;;
7883;SDS011;3987;51.458;7.238;2023-09-30T20:31:53;7.47;;;6.77;;
7883;SDS011;3987;51.458;7.238;2023-09-30T20:46:53;8.67;;;6.67;;
7883;SDS011;3987;51.458;7.238;2023-09-30T21:01:54;6.97;;;6.57;;
7883;SDS011;3987;51.458;7.238;2023-09-30T21:16:54;7.83;;;7.20;;
7883;SDS011;3987;51.458;7.238;2023-09-30T21:31:56;7.10;;;6.50;;
7883;SDS011;3987;51.458;7.238;2023-09-30T21:46:58;6.20;;;5.87;;
7883;SDS011;3987;51.458;7.238;2023-09-30T22:01:58;7.23;;;6.50;;
7883;SDS011;3987;51.458;7.238;2023-09-30T22:17:00;6.23;;;5.73;;
7883;SDS011;3987;51.458;7.238;2023-09-30T22:32:01;6.67;;;6.03;;
7883;SDS011;3987;51.458;7.238;2023-09-30T22:47:02;6.57;;;5.90;;
7883;SDS011;3987;51.458;7.238;2023-09-30T23:02:02;6.57;;;6.03;;
7883;SDS011;3987;51.458;7.238;2023-09-30T23:17:03;7.40;;;6.07;;
7883;SDS011;3987;51.458;7.238;2023-09-30T23:32:03;6.47;;;5.87;;
7883;SDS011;3987;51.458;7.238;2023-09-30T23:47:05;5.60;;;5.33;;
